Terminal Aerodrome Forecast
Issued by NWS Wilmington, OH

Home | Current Version | Previous Version | Text Only | Print | Product List | Glossary On
Versions: 1 2 3 4 5 6 7 8 9 10 11 12 13 14 15 16 17 18 19 20
000
FTUS41 KILN 191700
TAFILN
TAF
KILN 191738Z 1918/2018 12015G24KT P6SM -RA BKN045 OVC070
     FM192100 17016G26KT 4SM -SHRA OVC018
     FM200100 21014G22KT P6SM VCSH OVC020
     FM201000 18012G20KT P6SM VCSH OVC015
     FM201500 22018G28KT P6SM VCSH OVC025=

USA.gov is the U.S. government's official web portal to all federal, state and local government web resources and services.